Flugplatz Mengen-Hohentengen

Für EDTM sind keine METAR/TAF Berichte vorhanden.
Es werden die Flugwettermeldungen vom Flugplatz Friedrichshafen in 43 km Entfernung angezeigt.

Bericht für EDNY

vom 23.02. um 22:20 UTC

Wind 11 kt aus 260°

Sichtweite 10 km oder mehr

bedeckt in 5000 ft

Temperatur 14.0°C

Taupunkt 6.0°C

Luftfeuchtigkeit 58%

Luftdruck 1024 hPa

EDNY 232220Z AUTO 26011KT 230V290 9999 // OVC050/// 14/06 Q1024

Prognose für EDNY

vom 23.02. um 00:00 UTC

Am 23.02. zwischen 00:00 UTC und 00:00 UTC

Wind 15 kt aus 240° in Böen 25 kt

Sichtweite 10 km oder mehr

aufgebrochene Bewölkung in 4000 ft


Am 23.02. zwischen 00:00 UTC und 00:00 UTC zeitweise

Sichtweite 4000 m

Regen

aufgebrochene Bewölkung in 1000 ft


Zwischen 00:00 und 00:00 UTC übergehend zu

Wind 12 kt aus 240°

Sichtweite 10 km oder mehr

aufgebrochene Bewölkung in 4000 ft


Zwischen 00:00 und 00:00 UTC übergehend zu

Wind 5 kt aus 250°

Sichtweite 10 km oder mehr

aufgebrochene Bewölkung in 4000 ft

TAF EDNY 231700Z 2318/2418 24015G25KT 9999 BKN040 TEMPO 2322/2408 4000 RA BKN010 BECMG 2402/2404 24012KT BECMG 2405/2407 25005KT
Impressum